Time;durP1;ratioP1;P1;durP2;ratioP2;P2;SDS_P1;SDS_P2;PMS_P1;PMS_P2;Temp;Humidity;BMP_temperature;BMP_pressure;BME280_temperature;BME280_humidity;BME280_pressure;Samples;Min_cycle;Max_cycle;Signal;HPM_P1;HPM_P2
2021/12/04 00:01:31;;;;;;;1.48;0.52;;;16.10;68.40;;;;;;10517187;28;20549;-57
2021/12/04 00:06:39;;;;;;;0.95;0.50;;;16.10;68.40;;;;;;10533989;28;20563;-55
2021/12/04 00:11:44;;;;;;;2.28;0.95;;;16.10;68.40;;;;;;10523760;28;20551;-56
2021/12/04 00:16:45;;;;;;;1.50;0.60;;;16.10;68.40;;;;;;10537115;28;20024;-55
2021/12/04 00:21:46;;;;;;;2.17;0.52;;;16.10;68.40;;;;;;10541499;28;20032;-56
2021/12/04 00:26:49;;;;;;;1.20;0.47;;;16.00;68.40;;;;;;10541372;28;20023;-57
2021/12/04 00:31:57;;;;;;;0.60;0.38;;;16.00;68.40;;;;;;10541500;28;20024;-57
2021/12/04 00:52:48;;;;;;;1.50;0.90;;;15.90;68.30;;;;;;10584365;28;20036;-56
2021/12/04 00:57:49;;;;;;;0.95;0.55;;;15.90;68.40;;;;;;10565251;28;20467;-55
2021/12/04 01:02:51;;;;;;;0.95;0.50;;;15.90;68.30;;;;;;10565164;28;20054;-57
2021/12/04 01:07:52;;;;;;;0.75;0.40;;;15.90;68.30;;;;;;10583057;28;20035;-57
2021/12/04 01:12:56;;;;;;;0.70;0.50;;;15.90;68.40;;;;;;10559046;28;20038;-57
2021/12/04 01:17:56;;;;;;;1.60;0.77;;;15.90;68.40;;;;;;10582625;28;20035;-57
2021/12/04 01:22:58;;;;;;;0.70;0.40;;;15.80;68.30;;;;;;10563910;28;20435;-56
2021/12/04 01:27:58;;;;;;;1.83;0.40;;;15.80;68.30;;;;;;10563965;28;20020;-56
2021/12/04 01:32:59;;;;;;;1.23;0.60;;;15.80;68.30;;;;;;10564237;28;20106;-55
2021/12/04 01:38:00;;;;;;;0.50;0.40;;;15.80;68.30;;;;;;10563589;28;20030;-56
2021/12/04 01:43:01;;;;;;;1.10;0.40;;;15.80;68.40;;;;;;10563354;28;20437;-56
2021/12/04 01:48:03;;;;;;;1.75;0.57;;;15.80;68.40;;;;;;10581333;28;20110;-56
2021/12/04 01:53:04;;;;;;;1.40;0.50;;;15.70;68.40;;;;;;10563283;28;20436;-55
2021/12/04 01:58:06;;;;;;;1.00;0.40;;;15.70;68.40;;;;;;10562771;28;20032;-57
2021/12/04 02:03:09;;;;;;;1.42;0.63;;;15.70;68.40;;;;;;10562402;28;20031;-57
2021/12/04 02:08:14;;;;;;;1.02;0.40;;;15.70;68.40;;;;;;10560882;28;20020;-57
2021/12/04 02:13:16;;;;;;;1.92;0.50;;;15.70;68.30;;;;;;10556507;28;20028;-57
2021/12/04 02:18:20;;;;;;;0.60;0.40;;;15.70;68.30;;;;;;10559156;28;20432;-57
2021/12/04 02:23:21;;;;;;;0.95;0.50;;;15.70;68.30;;;;;;10558975;28;20083;-57
2021/12/04 02:28:22;;;;;;;0.80;0.40;;;15.70;68.10;;;;;;10541292;28;20032;-55
2021/12/04 02:33:23;;;;;;;0.60;0.43;;;15.70;68.10;;;;;;10578913;28;20115;-57
2021/12/04 02:38:26;;;;;;;0.93;0.60;;;15.70;68.10;;;;;;10561742;28;20039;-56
2021/12/04 02:43:32;;;;;;;0.77;0.50;;;15.70;68.10;;;;;;10579049;28;20043;-56
2021/12/04 02:48:32;;;;;;;1.08;0.57;;;15.70;68.00;;;;;;10543975;28;20497;-56
2021/12/04 02:53:34;;;;;;;0.73;0.50;;;15.70;68.00;;;;;;10560727;28;20031;-55
2021/12/04 02:58:35;;;;;;;0.98;0.60;;;15.70;68.00;;;;;;10578638;28;20055;-55
2021/12/04 03:03:35;;;;;;;1.40;0.60;;;15.80;67.80;;;;;;10578399;28;20038;-55
2021/12/04 03:08:36;;;;;;;1.85;0.55;;;15.80;68.20;;;;;;10578696;28;20448;-54
2021/12/04 03:13:37;;;;;;;0.80;0.55;;;15.80;67.70;;;;;;10539326;28;20023;-55
2021/12/04 03:18:37;;;;;;;1.33;0.45;;;15.80;67.70;;;;;;10557405;28;20031;-55
2021/12/04 03:23:41;;;;;;;1.00;0.52;;;15.80;67.50;;;;;;10557636;28;20059;-55
2021/12/04 03:28:42;;;;;;;1.08;0.47;;;15.90;67.40;;;;;;10559960;28;20120;-55
2021/12/04 03:44:22;;;;;;;0.68;0.35;;;15.80;67.40;;;;;;10578921;28;20047;-54
2021/12/04 03:49:22;;;;;;;1.27;0.57;;;15.80;67.50;;;;;;10568733;28;20031;-54
2021/12/04 03:54:23;;;;;;;0.70;0.40;;;15.80;67.50;;;;;;10567898;28;20027;-54
2021/12/04 03:59:24;;;;;;;0.30;0.30;;;15.90;67.30;;;;;;10567749;28;20080;-55
2021/12/04 04:04:25;;;;;;;1.08;0.30;;;15.90;67.30;;;;;;10585428;28;20079;-54
2021/12/04 04:09:29;;;;;;;1.05;0.50;;;15.90;67.20;;;;;;10567061;28;20031;-53
2021/12/04 04:14:29;;;;;;;0.30;0.30;;;15.80;67.20;;;;;;10550140;28;20498;-54
2021/12/04 04:19:31;;;;;;;0.82;0.40;;;15.80;67.30;;;;;;10566877;28;20023;-55
2021/12/04 04:24:32;;;;;;;1.13;0.50;;;15.80;67.40;;;;;;10584851;28;20027;-56
2021/12/04 04:29:32;;;;;;;1.75;0.40;;;15.80;67.30;;;;;;10566310;28;20039;-56
2021/12/04 04:34:36;;;;;;;0.40;0.40;;;15.90;67.10;;;;;;10585065;28;20547;-55
2021/12/04 05:11:39;;;;;;;0.70;0.55;;;15.90;67.10;;;;;;10569022;28;20028;-55
2021/12/04 05:16:45;;;;;;;0.70;0.40;;;15.80;67.10;;;;;;10576823;28;20020;-56
2021/12/04 05:21:46;;;;;;;0.70;0.40;;;15.90;67.00;;;;;;10564811;28;20031;-56
2021/12/04 05:26:46;;;;;;;0.38;0.30;;;15.90;66.90;;;;;;10564095;28;20433;-56
2021/12/04 05:31:47;;;;;;;0.80;0.47;;;15.90;67.00;;;;;;10564003;28;20387;-55
2021/12/04 05:36:48;;;;;;;0.80;0.40;;;15.80;66.90;;;;;;10563657;28;20027;-55
2021/12/04 05:41:49;;;;;;;0.60;0.30;;;15.90;66.80;;;;;;10563486;28;20030;-56
2021/12/04 05:47:16;;;;;;;0.95;0.43;;;16.00;66.30;;;;;;10563396;28;20456;-55
2021/12/04 05:52:40;;;;;;;0.93;0.80;;;16.20;65.90;;;;;;10567418;28;20081;-55
2021/12/04 05:57:40;;;;;;;0.50;0.35;;;16.40;65.30;;;;;;10566752;28;20031;-54
2021/12/04 06:02:41;;;;;;;1.10;0.65;;;16.50;64.90;;;;;;10545897;28;20065;-55
2021/12/04 06:07:42;;;;;;;1.10;0.40;;;16.70;64.50;;;;;;10555690;28;20024;-55
2021/12/04 06:12:42;;;;;;;1.38;0.60;;;16.70;64.20;;;;;;10561384;28;20059;-56
2021/12/04 06:17:43;;;;;;;3.20;0.43;;;16.80;64.10;;;;;;10577648;28;20110;-56
2021/12/04 06:22:44;;;;;;;4.82;0.55;;;16.90;63.90;;;;;;10563210;28;20028;-54
2021/12/04 06:27:45;;;;;;;6.82;0.68;;;17.00;64.10;;;;;;10542787;28;20135;-53
2021/12/04 06:32:48;;;;;;;2.50;0.57;;;17.00;65.30;;;;;;10556968;28;20399;-55
2021/12/04 06:37:50;;;;;;;2.80;0.65;;;17.00;64.90;;;;;;10576118;28;20487;-56
2021/12/04 06:42:50;;;;;;;4.80;0.80;;;17.10;65.00;;;;;;10562697;28;20085;-55
2021/12/04 06:48:02;;;;;;;1.80;0.65;;;17.20;64.70;;;;;;10562841;28;20069;-53
2021/12/04 06:53:26;;;;;;;3.70;0.70;;;17.20;64.70;;;;;;10563476;28;20028;-55
2021/12/04 06:58:27;;;;;;;3.92;0.75;;;17.40;64.50;;;;;;10565201;28;20126;-56
2021/12/04 07:03:28;;;;;;;4.10;0.70;;;17.30;64.40;;;;;;10557329;28;20106;-55
2021/12/04 07:08:29;;;;;;;9.95;1.25;;;17.40;64.70;;;;;;10580380;28;20033;-54
2021/12/04 07:13:32;;;;;;;4.03;1.02;;;17.40;64.30;;;;;;10554917;28;20027;-55
2021/12/04 07:18:34;;;;;;;3.42;0.80;;;17.40;64.20;;;;;;10547993;28;20032;-53
2021/12/04 07:23:35;;;;;;;10.50;1.00;;;17.40;63.80;;;;;;10558338;28;20038;-55
2021/12/04 07:28:37;;;;;;;4.25;0.65;;;17.50;63.70;;;;;;10578765;28;20464;-57
2021/12/04 07:33:38;;;;;;;6.30;1.63;;;17.50;63.60;;;;;;10558848;28;20028;-56
2021/12/04 07:38:38;;;;;;;3.50;1.10;;;17.50;64.20;;;;;;10556105;28;20032;-57
2021/12/04 07:43:39;;;;;;;3.72;0.77;;;17.60;64.00;;;;;;10559161;28;20092;-56
2021/12/04 07:48:40;;;;;;;2.85;0.77;;;17.70;63.70;;;;;;10559689;28;20028;-58
2021/12/04 07:53:41;;;;;;;3.80;1.15;;;17.80;63.50;;;;;;10578057;28;20035;-58
2021/12/04 07:58:45;;;;;;;7.20;1.23;;;17.70;63.30;;;;;;10577409;28;20020;-56
2021/12/04 08:03:46;;;;;;;7.30;1.13;;;17.80;63.30;;;;;;10560522;28;20360;-57
2021/12/04 08:08:47;;;;;;;5.15;0.73;;;17.80;63.10;;;;;;10578062;28;20035;-57
2021/12/04 08:13:48;;;;;;;5.00;0.90;;;17.70;63.40;;;;;;10559618;28;20039;-55
2021/12/04 08:18:48;;;;;;;5.65;1.55;;;17.60;63.80;;;;;;10560378;28;20118;-56
2021/12/04 08:23:49;;;;;;;6.72;1.30;;;17.60;65.20;;;;;;10559681;28;20032;-57
2021/12/04 08:28:51;;;;;;;7.60;1.85;;;17.60;64.70;;;;;;10559835;28;20032;-57
2021/12/04 08:33:52;;;;;;;8.60;1.38;;;17.80;64.90;;;;;;10564926;28;20047;-57
2021/12/04 08:38:53;;;;;;;8.25;1.45;;;17.80;64.20;;;;;;10567082;28;20444;-58
2021/12/04 08:43:54;;;;;;;8.00;1.52;;;17.80;64.00;;;;;;10566601;28;20462;-57
2021/12/04 08:48:56;;;;;;;7.50;1.50;;;17.90;63.70;;;;;;10567517;28;20105;-57
2021/12/04 08:53:56;;;;;;;10.30;1.70;;;17.80;63.60;;;;;;10585159;28;20024;-57
2021/12/04 08:58:57;;;;;;;8.10;1.20;;;17.90;63.30;;;;;;10584448;28;20040;-57
2021/12/04 09:04:12;;;;;;;12.50;2.00;;;18.00;63.00;;;;;;10585252;28;20035;-56
2021/12/04 09:09:15;;;;;;;11.27;2.63;;;17.90;63.30;;;;;;10565227;28;20563;-57
2021/12/04 09:14:18;;;;;;;9.23;1.90;;;18.00;63.50;;;;;;10580070;28;20022;-55
2021/12/04 09:19:21;;;;;;;11.93;2.33;;;18.00;63.50;;;;;;10563902;28;20031;-57
2021/12/04 09:24:27;;;;;;;14.95;3.03;;;17.90;63.30;;;;;;10565883;28;20042;-58
2021/12/04 10:01:33;;;;;;;9.07;1.90;;;18.10;62.50;;;;;;10579879;28;20468;-56
2021/12/04 10:33:20;;;;;;;8.25;1.95;;;18.20;61.90;;;;;;10565795;28;20032;-56
2021/12/04 10:38:26;;;;;;;7.07;1.95;;;18.20;61.70;;;;;;10563257;28;20055;-55
2021/12/04 10:43:30;;;;;;;3.65;1.35;;;18.20;61.90;;;;;;10580585;28;20563;-55
2021/12/04 10:48:33;;;;;;;5.50;1.70;;;18.30;61.70;;;;;;10561855;28;20105;-55
2021/12/04 10:53:47;;;;;;;3.70;1.20;;;18.20;61.60;;;;;;10561841;28;20023;-56
2021/12/04 11:04:25;;;;;;;5.18;1.35;;;18.20;61.60;;;;;;10580912;28;20047;-55
2021/12/04 11:36:30;;;;;;;3.70;0.93;;;18.30;61.30;;;;;;10580093;28;20035;-56
2021/12/04 11:41:39;;;;;;;6.65;1.10;;;18.30;61.30;;;;;;10562944;28;20042;-56
2021/12/04 11:46:45;;;;;;;2.67;1.40;;;18.30;61.30;;;;;;10522179;28;20040;-56
2021/12/04 11:51:56;;;;;;;2.33;0.85;;;18.30;61.30;;;;;;10535790;28;20026;-55
2021/12/04 11:57:02;;;;;;;3.45;1.75;;;18.30;61.20;;;;;;10536105;28;20036;-55
2021/12/04 12:02:08;;;;;;;2.33;0.80;;;18.30;61.20;;;;;;10535611;28;20067;-53
2021/12/04 12:07:12;;;;;;;2.17;0.82;;;18.30;61.20;;;;;;10539456;28;20032;-55
2021/12/04 12:12:16;;;;;;;6.07;1.10;;;18.30;61.20;;;;;;10544751;28;20073;-55
2021/12/04 12:17:35;;;;;;;4.13;0.98;;;18.40;61.00;;;;;;10544793;28;20130;-55
2021/12/04 12:33:09;;;;;;;2.72;0.98;;;18.30;61.00;;;;;;10542505;28;20039;-55
2021/12/04 12:38:28;;;;;;;3.03;1.10;;;18.40;61.00;;;;;;10542582;28;20123;-55
2021/12/04 12:43:59;;;;;;;2.15;0.75;;;18.40;61.00;;;;;;10547618;28;20051;-55
2021/12/04 12:49:00;;;;;;;2.28;0.70;;;18.40;60.90;;;;;;10568578;28;20040;-56
2021/12/04 12:54:06;;;;;;;4.10;1.33;;;18.40;61.00;;;;;;10567119;28;20019;-57
2021/12/04 12:59:32;;;;;;;1.77;1.00;;;18.40;60.90;;;;;;10566801;28;20038;-57
2021/12/04 13:16:16;;;;;;;3.30;0.90;;;18.40;60.90;;;;;;10571733;28;20470;-54
2021/12/04 13:21:17;;;;;;;2.15;0.93;;;18.40;60.80;;;;;;10567255;28;20035;-55
2021/12/04 13:26:24;;;;;;;1.60;0.77;;;18.40;60.70;;;;;;10565796;28;20019;-55
2021/12/04 13:31:25;;;;;;;1.25;0.60;;;18.40;60.60;;;;;;10566163;28;20118;-55
2021/12/04 13:36:29;;;;;;;1.15;0.65;;;18.40;60.70;;;;;;10583721;28;20111;-56
2021/12/04 13:41:31;;;;;;;1.88;0.93;;;18.40;60.70;;;;;;10565527;28;20107;-56
2021/12/04 13:47:09;;;;;;;1.30;0.60;;;18.40;60.60;;;;;;10564815;28;20518;-57
2021/12/04 13:52:13;;;;;;;1.17;0.60;;;18.40;60.70;;;;;;10555843;28;20047;-57
2021/12/04 13:57:15;;;;;;;11.75;0.98;;;18.50;60.50;;;;;;10562695;28;20031;-56
2021/12/04 14:02:22;;;;;;;1.70;0.88;;;18.50;60.60;;;;;;10562848;28;20027;-54
2021/12/04 14:07:23;;;;;;;1.58;0.93;;;18.50;60.50;;;;;;10563208;28;20040;-54
2021/12/04 14:12:29;;;;;;;2.90;1.13;;;18.50;60.60;;;;;;10569928;28;20023;-56
2021/12/04 14:17:30;;;;;;;1.77;0.70;;;18.50;60.50;;;;;;10550827;28;20055;-56
2021/12/04 14:22:31;;;;;;;1.08;0.40;;;18.50;60.50;;;;;;10562809;28;20036;-56
2021/12/04 14:27:35;;;;;;;1.75;0.73;;;18.50;60.40;;;;;;10561866;28;20432;-56
2021/12/04 14:32:38;;;;;;;3.67;0.88;;;18.50;60.50;;;;;;10580341;28;20028;-55
2021/12/04 14:37:41;;;;;;;1.60;0.60;;;18.50;60.40;;;;;;10562348;28;20028;-56
2021/12/04 14:42:43;;;;;;;2.38;0.80;;;18.50;60.40;;;;;;10580736;28;20039;-57
2021/12/04 14:47:56;;;;;;;1.33;0.60;;;18.50;60.40;;;;;;10579901;28;20431;-55
2021/12/04 14:53:05;;;;;;;1.58;0.52;;;18.50;60.50;;;;;;10560139;28;20024;-56
2021/12/04 14:58:14;;;;;;;0.88;0.50;;;18.50;60.40;;;;;;10562273;28;20384;-57
2021/12/04 15:03:29;;;;;;;0.80;0.47;;;18.50;60.40;;;;;;10559229;28;20039;-57
2021/12/04 15:08:39;;;;;;;1.90;0.80;;;18.50;60.40;;;;;;10562691;28;20024;-56
2021/12/04 15:13:51;;;;;;;1.08;0.70;;;18.50;60.40;;;;;;10544984;28;20024;-57
2021/12/04 15:18:52;;;;;;;1.90;1.02;;;18.50;60.30;;;;;;10541628;28;20042;-57
2021/12/04 15:23:55;;;;;;;1.60;0.68;;;18.50;60.30;;;;;;10561436;28;20024;-56
2021/12/04 15:28:55;;;;;;;1.17;0.70;;;18.60;60.30;;;;;;10561324;28;20490;-55
2021/12/04 15:33:58;;;;;;;1.30;0.80;;;18.50;60.30;;;;;;10560985;28;20118;-55
2021/12/04 15:39:06;;;;;;;2.03;0.95;;;18.50;60.20;;;;;;10579333;28;20016;-57
2021/12/04 15:54:37;;;;;;;2.70;0.65;;;18.60;60.30;;;;;;10569776;28;20039;-55
2021/12/04 15:59:45;;;;;;;1.48;0.77;;;18.50;60.30;;;;;;10570548;28;20386;-56
2021/12/04 16:04:48;;;;;;;1.58;0.60;;;18.60;60.20;;;;;;10587231;28;20463;-56
2021/12/04 16:09:49;;;;;;;2.50;0.77;;;18.60;60.30;;;;;;10574215;27;20103;-57
2021/12/04 16:14:56;;;;;;;5.47;1.33;;;18.50;60.30;;;;;;10562355;28;20057;-56
2021/12/04 16:20:08;;;;;;;5.93;1.30;;;18.40;60.80;;;;;;10586492;28;20027;-57
2021/12/04 16:25:14;;;;;;;9.65;2.20;;;18.50;60.80;;;;;;10570276;28;20028;-57
2021/12/04 16:40:42;;;;;;;8.45;2.92;;;18.30;60.90;;;;;;10585399;28;20036;-57
2021/12/04 16:45:54;;;;;;;7.13;2.90;;;18.30;60.60;;;;;;10565891;28;20450;-55
2021/12/04 17:01:17;;;;;;;10.02;3.50;;;18.40;64.60;;;;;;10585308;28;20387;-55
2021/12/04 17:06:19;;;;;;;11.82;2.92;;;18.60;64.60;;;;;;10566433;28;20063;-53
2021/12/04 17:11:20;;;;;;;8.80;2.20;;;18.60;64.50;;;;;;10546835;28;20107;-55
2021/12/04 17:16:27;;;;;;;10.95;3.10;;;18.70;64.90;;;;;;10589397;27;20401;-56
2021/12/04 17:21:32;;;;;;;10.02;2.70;;;18.70;64.60;;;;;;10575412;28;20028;-56
2021/12/04 17:26:33;;;;;;;11.85;3.38;;;18.70;64.20;;;;;;10551432;28;20072;-56
2021/12/04 17:31:34;;;;;;;10.45;3.20;;;18.70;63.80;;;;;;10565185;28;20032;-57
2021/12/04 17:36:36;;;;;;;9.00;2.45;;;18.70;63.80;;;;;;10582248;28;20035;-56
2021/12/04 17:41:38;;;;;;;15.43;2.83;;;18.70;63.80;;;;;;10582291;28;20420;-56
2021/12/04 17:46:39;;;;;;;16.55;3.17;;;18.70;63.90;;;;;;10581264;28;20062;-55
2021/12/04 17:51:39;;;;;;;12.85;2.50;;;18.70;63.90;;;;;;10557756;28;20031;-55
2021/12/04 17:56:43;;;;;;;11.27;2.67;;;18.70;63.90;;;;;;10536900;28;20035;-56
2021/12/04 18:01:51;;;;;;;11.82;3.78;;;18.70;63.70;;;;;;10552753;28;20616;-58
2021/12/04 18:06:59;;;;;;;12.40;2.67;;;18.70;63.90;;;;;;10542883;28;20409;-57
2021/12/04 18:12:10;;;;;;;5.05;2.15;;;18.70;63.60;;;;;;10549114;28;20106;-57
2021/12/04 18:17:11;;;;;;;8.70;2.53;;;18.60;63.80;;;;;;10532488;28;20031;-57
2021/12/04 18:22:11;;;;;;;8.98;2.80;;;18.60;63.50;;;;;;10543163;28;20035;-57
2021/12/04 18:27:14;;;;;;;10.25;2.05;;;18.60;63.60;;;;;;10556666;28;20046;-56
2021/12/04 18:32:14;;;;;;;5.90;1.73;;;18.60;63.50;;;;;;10551194;28;20016;-56
2021/12/04 18:37:15;;;;;;;8.65;2.05;;;18.60;63.40;;;;;;10554934;28;20019;-54
2021/12/04 18:42:16;;;;;;;7.13;1.70;;;18.60;63.50;;;;;;10553256;28;20115;-57
2021/12/04 18:47:17;;;;;;;8.60;2.20;;;18.60;63.40;;;;;;10523723;28;20136;-56
2021/12/04 18:52:19;;;;;;;11.07;2.80;;;18.60;63.50;;;;;;10537003;28;20488;-56
2021/12/04 18:57:20;;;;;;;6.93;2.50;;;18.60;63.60;;;;;;10536581;28;20382;-57
2021/12/04 19:02:23;;;;;;;5.68;1.83;;;18.60;64.20;;;;;;10520213;28;20039;-57
2021/12/04 19:07:24;;;;;;;3.95;1.63;;;18.70;64.10;;;;;;10536844;28;20534;-57
2021/12/04 19:12:26;;;;;;;10.55;1.58;;;18.60;63.60;;;;;;10536422;28;20115;-56
2021/12/04 19:17:27;;;;;;;6.95;1.75;;;18.60;63.50;;;;;;10536039;28;20165;-56
2021/12/04 19:22:28;;;;;;;6.13;1.48;;;18.60;63.60;;;;;;10541963;28;20104;-57
2021/12/04 19:27:28;;;;;;;4.15;1.45;;;18.70;63.60;;;;;;10530245;28;20035;-57
2021/12/04 19:32:31;;;;;;;3.60;1.92;;;18.60;63.70;;;;;;10525345;28;20377;-56
2021/12/04 19:48:25;;;;;;;5.32;1.20;;;18.60;63.60;;;;;;10563713;28;20134;-56
2021/12/04 19:53:47;;;;;;;5.43;2.55;;;18.60;63.50;;;;;;10562735;28;20502;-56
2021/12/04 19:58:55;;;;;;;5.78;1.40;;;18.70;63.50;;;;;;10579121;28;20073;-57
2021/12/04 20:04:08;;;;;;;5.70;1.83;;;18.70;63.50;;;;;;10578881;28;20034;-56
2021/12/04 20:14:12;;;;;;;4.20;1.67;;;18.60;64.00;;;;;;10555457;28;20036;-53
2021/12/04 20:19:13;;;;;;;4.60;1.45;;;18.40;64.30;;;;;;10576390;28;20414;-56
2021/12/04 20:24:17;;;;;;;4.47;1.27;;;18.30;64.70;;;;;;10576115;28;20027;-55
2021/12/04 21:38:46;;;;;;;3.25;1.40;;;17.10;67.00;;;;;;10584700;28;20036;-55
2021/12/04 21:44:13;;;;;;;3.20;1.40;;;16.90;67.10;;;;;;10569746;28;20027;-56
2021/12/04 21:54:08;;;;;;;3.05;0.90;;;16.80;67.10;;;;;;10582039;28;20059;-57
2021/12/04 22:09:53;;;;;;;3.08;1.20;;;16.70;67.10;;;;;;10582397;28;20035;-53
2021/12/04 22:15:10;;;;;;;3.47;1.02;;;16.70;67.10;;;;;;10561545;28;20028;-55
2021/12/04 22:20:28;;;;;;;2.28;1.15;;;16.60;67.10;;;;;;10582130;28;20055;-56
2021/12/04 22:26:14;;;;;;;3.63;1.45;;;16.50;67.00;;;;;;10581962;28;20480;-55
2021/12/04 23:13:58;;;;;;;2.00;0.75;;;16.30;67.20;;;;;;10565149;28;20028;-55
2021/12/04 23:35:17;;;;;;;2.13;1.03;;;16.20;67.30;;;;;;10579893;28;20040;-56
